Time;durP1;ratioP1;P1;durP2;ratioP2;P2;SDS_P1;SDS_P2;PMS_P1;PMS_P2;Temp;Humidity;BMP_temperature;BMP_pressure;BME280_temperature;BME280_humidity;BME280_pressure;Samples;Min_cycle;Max_cycle;Signal;HPM_P1;HPM_P2
2022/09/17 00:02:10;;;;;;;16.25;3.30;;;;;;;;;;5038749;28;20445;-81
2022/09/17 00:04:36;;;;;;;19.48;4.00;;;;;;;;;;5038401;28;20411;-80
2022/09/17 00:07:03;;;;;;;18.17;4.22;;;;;;;;;;5039206;28;20443;-81
2022/09/17 00:09:30;;;;;;;20.35;4.70;;;;;;;;;;5039666;28;20411;-80
2022/09/17 00:11:58;;;;;;;19.38;3.75;;;;;;;;;;5040380;28;20915;-80
2022/09/17 00:14:24;;;;;;;15.10;4.38;;;;;;;;;;5039457;28;20411;-81
2022/09/17 00:16:50;;;;;;;16.92;3.95;;;;;;;;;;5040083;28;20436;-81
2022/09/17 00:19:18;;;;;;;15.85;3.80;;;;;;;;;;5040317;28;20441;-81
2022/09/17 00:21:45;;;;;;;17.05;4.22;;;;;;;;;;5039194;28;20443;-81
2022/09/17 00:24:12;;;;;;;21.63;4.38;;;;;;;;;;5040394;28;20409;-82
2022/09/17 00:26:38;;;;;;;17.15;4.55;;;;;;;;;;5040690;28;20799;-81
2022/09/17 00:29:06;;;;;;;17.30;4.30;;;;;;;;;;5040047;28;20439;-82
2022/09/17 00:31:33;;;;;;;19.38;4.25;;;;;;;;;;5039100;28;20799;-81
2022/09/17 00:34:00;;;;;;;20.42;4.70;;;;;;;;;;5041270;28;20518;-81
2022/09/17 00:36:27;;;;;;;20.33;4.50;;;;;;;;;;5038287;28;20452;-81
2022/09/17 00:38:54;;;;;;;21.48;4.28;;;;;;;;;;5040104;28;20806;-81
2022/09/17 00:41:21;;;;;;;19.58;3.90;;;;;;;;;;5039489;28;20957;-81
2022/09/17 00:43:49;;;;;;;17.73;3.55;;;;;;;;;;5039832;28;20441;-81
2022/09/17 00:46:23;;;;;;;21.80;4.72;;;;;;;;;;5037766;28;20432;-82
2022/09/17 00:48:49;;;;;;;21.42;4.38;;;;;;;;;;5038620;28;20475;-81
2022/09/17 00:51:18;;;;;;;17.02;3.80;;;;;;;;;;5038696;28;20931;-81
2022/09/17 00:53:45;;;;;;;18.10;3.72;;;;;;;;;;5037702;28;20429;-81
2022/09/17 00:56:14;;;;;;;13.23;3.70;;;;;;;;;;5039903;28;20421;-80
2022/09/17 00:58:41;;;;;;;17.90;4.32;;;;;;;;;;5040168;28;20440;-81
2022/09/17 01:01:07;;;;;;;17.35;3.58;;;;;;;;;;5038600;28;20433;-81
2022/09/17 01:03:35;;;;;;;19.85;4.15;;;;;;;;;;5039061;28;20528;-81
2022/09/17 01:06:09;;;;;;;18.92;4.75;;;;;;;;;;5039145;28;20431;-81
2022/09/17 01:08:40;;;;;;;19.40;4.03;;;;;;;;;;5039610;28;20415;-81
2022/09/17 01:11:15;;;;;;;19.48;4.40;;;;;;;;;;5041554;28;20806;-81
2022/09/17 01:13:48;;;;;;;18.95;4.50;;;;;;;;;;5043519;28;20442;-81
2022/09/17 01:16:18;;;;;;;19.00;4.30;;;;;;;;;;5041637;28;20904;-80
2022/09/17 01:18:54;;;;;;;24.30;5.00;;;;;;;;;;5042350;28;20505;-81
2022/09/17 01:21:33;;;;;;;21.60;5.07;;;;;;;;;;5042040;28;20934;-80
2022/09/17 01:24:21;;;;;;;17.25;4.03;;;;;;;;;;5043536;28;20429;-81
2022/09/17 01:27:01;;;;;;;16.10;4.45;;;;;;;;;;5039314;28;20437;-80
2022/09/17 01:29:35;;;;;;;13.02;3.90;;;;;;;;;;5042272;28;20415;-81
2022/09/17 01:32:08;;;;;;;22.52;4.10;;;;;;;;;;5043292;28;20437;-80
2022/09/17 01:34:40;;;;;;;19.30;4.00;;;;;;;;;;5042018;28;20470;-80
2022/09/17 01:37:10;;;;;;;26.00;5.00;;;;;;;;;;5043213;28;20436;-81
2022/09/17 01:39:43;;;;;;;15.75;3.95;;;;;;;;;;5041630;28;20413;-81
2022/09/17 01:42:15;;;;;;;14.35;4.22;;;;;;;;;;5041515;28;21026;-81
2022/09/17 01:44:45;;;;;;;13.40;3.70;;;;;;;;;;5043607;28;20502;-80
2022/09/17 01:47:16;;;;;;;14.37;3.40;;;;;;;;;;5043881;28;20537;-81
2022/09/17 01:49:43;;;;;;;17.02;3.47;;;;;;;;;;5043542;28;20791;-80
2022/09/17 01:52:12;;;;;;;13.93;3.50;;;;;;;;;;5042965;28;20432;-80
2022/09/17 01:54:41;;;;;;;15.60;3.58;;;;;;;;;;5040887;28;20423;-80
2022/09/17 01:57:10;;;;;;;17.30;4.28;;;;;;;;;;5041277;28;20803;-80
2022/09/17 01:59:40;;;;;;;12.55;3.92;;;;;;;;;;5042518;28;20415;-81
2022/09/17 02:02:10;;;;;;;19.02;4.18;;;;;;;;;;5043056;28;20508;-81
2022/09/17 02:04:40;;;;;;;18.38;4.18;;;;;;;;;;5039805;28;20427;-81
2022/09/17 02:07:09;;;;;;;17.10;4.35;;;;;;;;;;5041917;28;20443;-81
2022/09/17 02:09:38;;;;;;;13.65;3.60;;;;;;;;;;5042130;28;20426;-80
2022/09/17 02:12:06;;;;;;;17.48;4.20;;;;;;;;;;5042017;28;20441;-81
2022/09/17 02:14:36;;;;;;;13.88;4.00;;;;;;;;;;5039196;28;20426;-80
2022/09/17 02:17:05;;;;;;;12.70;3.53;;;;;;;;;;5042254;28;20930;-80
2022/09/17 02:19:34;;;;;;;12.10;3.03;;;;;;;;;;5042273;28;20510;-80
2022/09/17 02:22:03;;;;;;;12.07;3.38;;;;;;;;;;5042678;28;20447;-81
2022/09/17 02:24:33;;;;;;;13.53;3.20;;;;;;;;;;5040781;28;20466;-81
2022/09/17 02:27:02;;;;;;;12.57;3.03;;;;;;;;;;5043099;28;20429;-81
2022/09/17 02:29:31;;;;;;;12.57;3.22;;;;;;;;;;5039648;28;20424;-81
2022/09/17 02:31:58;;;;;;;16.17;3.20;;;;;;;;;;5037797;28;20434;-81
2022/09/17 02:34:25;;;;;;;13.80;3.38;;;;;;;;;;5041755;28;20510;-80
2022/09/17 02:36:52;;;;;;;12.38;3.72;;;;;;;;;;5041684;28;20427;-81
2022/09/17 02:39:20;;;;;;;13.73;3.15;;;;;;;;;;5041545;28;20776;-80
2022/09/17 02:41:51;;;;;;;13.48;3.35;;;;;;;;;;5040622;28;20433;-81
2022/09/17 02:44:21;;;;;;;9.90;3.10;;;;;;;;;;5041045;28;20912;-81
2022/09/17 02:47:00;;;;;;;13.13;3.40;;;;;;;;;;5040146;28;20438;-81
2022/09/17 02:49:48;;;;;;;17.80;3.35;;;;;;;;;;5039955;28;20419;-80
2022/09/17 02:52:17;;;;;;;15.85;3.50;;;;;;;;;;5009145;28;20437;-81
2022/09/17 02:54:51;;;;;;;14.02;3.80;;;;;;;;;;5040120;28;20520;-81
2022/09/17 02:57:20;;;;;;;16.75;3.60;;;;;;;;;;5040937;28;20432;-81
2022/09/17 02:59:51;;;;;;;14.30;3.63;;;;;;;;;;5038952;28;20429;-81
2022/09/17 03:02:20;;;;;;;15.25;3.50;;;;;;;;;;5041786;28;21071;-80
2022/09/17 03:04:47;;;;;;;21.13;3.97;;;;;;;;;;5041580;28;20407;-80
2022/09/17 03:07:14;;;;;;;15.65;3.60;;;;;;;;;;5039388;28;20518;-81
2022/09/17 03:09:42;;;;;;;22.10;4.20;;;;;;;;;;5040911;28;21070;-80
2022/09/17 03:12:10;;;;;;;19.60;4.18;;;;;;;;;;5041095;28;20433;-80
2022/09/17 03:14:36;;;;;;;15.93;3.40;;;;;;;;;;5039738;28;20474;-81
2022/09/17 03:17:03;;;;;;;15.20;3.75;;;;;;;;;;5039977;28;20439;-80
2022/09/17 03:19:29;;;;;;;18.13;3.95;;;;;;;;;;5038118;28;20925;-81
2022/09/17 03:21:56;;;;;;;13.00;3.05;;;;;;;;;;5040275;28;20407;-81
2022/09/17 03:24:22;;;;;;;15.90;3.60;;;;;;;;;;5040189;28;20506;-81
2022/09/17 03:26:49;;;;;;;17.67;4.25;;;;;;;;;;5043242;28;20428;-80
2022/09/17 03:29:17;;;;;;;12.15;3.60;;;;;;;;;;5038396;28;20433;-81
2022/09/17 03:31:43;;;;;;;15.75;4.20;;;;;;;;;;5039196;28;20422;-81
2022/09/17 03:34:09;;;;;;;20.63;4.17;;;;;;;;;;5040630;28;20824;-81
2022/09/17 03:36:36;;;;;;;17.83;3.85;;;;;;;;;;5041564;28;20425;-81
2022/09/17 03:39:02;;;;;;;16.70;4.10;;;;;;;;;;5040409;28;20427;-81
2022/09/17 03:41:29;;;;;;;16.58;3.70;;;;;;;;;;5042059;28;20428;-81
2022/09/17 03:43:55;;;;;;;23.43;4.40;;;;;;;;;;5043058;28;20421;-81
2022/09/17 03:46:23;;;;;;;10.73;2.90;;;;;;;;;;5040699;28;20420;-81
2022/09/17 03:48:49;;;;;;;16.55;3.65;;;;;;;;;;5040066;28;20458;-81
2022/09/17 03:51:16;;;;;;;16.00;3.63;;;;;;;;;;5040776;28;20462;-80
2022/09/17 03:53:42;;;;;;;11.60;3.10;;;;;;;;;;5039962;28;20452;-81
2022/09/17 03:56:09;;;;;;;19.05;4.10;;;;;;;;;;5039313;28;20936;-80
2022/09/17 03:58:35;;;;;;;17.00;3.38;;;;;;;;;;5041427;28;20413;-81
2022/09/17 04:01:03;;;;;;;12.48;3.40;;;;;;;;;;5041111;28;20931;-81
2022/09/17 04:03:31;;;;;;;12.83;3.43;;;;;;;;;;5036102;28;20485;-81
2022/09/17 04:05:57;;;;;;;14.00;3.60;;;;;;;;;;5040731;28;20424;-80
2022/09/17 04:08:25;;;;;;;11.05;3.08;;;;;;;;;;5040615;28;20448;-80
2022/09/17 04:10:51;;;;;;;13.07;2.90;;;;;;;;;;5040300;28;21245;-80
2022/09/17 04:13:18;;;;;;;12.98;2.83;;;;;;;;;;5040764;28;20426;-80
2022/09/17 04:15:45;;;;;;;11.10;2.57;;;;;;;;;;5037679;28;20509;-80
2022/09/17 04:18:11;;;;;;;11.18;3.00;;;;;;;;;;5040854;28;20881;-79
2022/09/17 04:20:39;;;;;;;10.30;2.80;;;;;;;;;;5036880;28;20959;-80
2022/09/17 04:23:06;;;;;;;11.45;2.83;;;;;;;;;;5041513;28;20433;-80
2022/09/17 04:25:33;;;;;;;13.40;3.08;;;;;;;;;;5039009;28;20432;-80
2022/09/17 04:28:00;;;;;;;13.10;2.75;;;;;;;;;;5037226;28;20444;-80
2022/09/17 04:30:26;;;;;;;11.32;2.78;;;;;;;;;;5036390;28;20440;-81
2022/09/17 04:32:52;;;;;;;12.55;3.10;;;;;;;;;;5040025;28;20433;-81
2022/09/17 04:35:19;;;;;;;11.75;3.33;;;;;;;;;;5038151;28;20805;-80
2022/09/17 04:37:53;;;;;;;15.60;2.97;;;;;;;;;;5038702;28;20445;-80
2022/09/17 04:40:19;;;;;;;9.93;3.28;;;;;;;;;;5036659;28;20855;-81
2022/09/17 04:42:46;;;;;;;16.25;3.78;;;;;;;;;;5041031;28;20421;-80
2022/09/17 04:45:12;;;;;;;13.35;3.70;;;;;;;;;;5040316;28;20423;-80
2022/09/17 04:47:39;;;;;;;12.87;3.00;;;;;;;;;;5043342;28;20434;-81
2022/09/17 04:50:06;;;;;;;12.00;3.60;;;;;;;;;;5043388;28;20838;-81
2022/09/17 04:52:32;;;;;;;11.82;3.03;;;;;;;;;;5043250;28;20430;-80
2022/09/17 04:55:00;;;;;;;14.85;3.33;;;;;;;;;;5043772;28;20417;-81
2022/09/17 04:57:26;;;;;;;16.77;4.10;;;;;;;;;;5044124;28;20426;-81
2022/09/17 04:59:53;;;;;;;12.73;3.30;;;;;;;;;;5044416;28;20423;-80
2022/09/17 05:02:19;;;;;;;15.73;3.10;;;;;;;;;;5043628;28;20454;-81
2022/09/17 05:04:46;;;;;;;13.45;3.50;;;;;;;;;;5045102;28;20413;-81
2022/09/17 05:07:12;;;;;;;15.73;3.33;;;;;;;;;;5042638;28;20429;-81
2022/09/17 05:09:38;;;;;;;19.88;3.80;;;;;;;;;;5041722;28;20444;-82
2022/09/17 05:12:06;;;;;;;16.05;3.20;;;;;;;;;;5043255;28;20437;-81
2022/09/17 05:14:33;;;;;;;17.65;4.10;;;;;;;;;;5043680;28;20782;-81
2022/09/17 05:16:59;;;;;;;14.88;3.90;;;;;;;;;;5044108;28;20436;-80
2022/09/17 05:19:25;;;;;;;17.98;3.67;;;;;;;;;;5041532;28;20784;-81
2022/09/17 05:21:52;;;;;;;15.90;3.90;;;;;;;;;;5039570;28;20444;-81
2022/09/17 05:24:18;;;;;;;13.52;3.70;;;;;;;;;;5044338;28;20922;-81
2022/09/17 05:26:45;;;;;;;13.20;3.80;;;;;;;;;;5042776;28;20437;-81
2022/09/17 05:29:13;;;;;;;16.83;3.50;;;;;;;;;;5039255;28;20444;-81
2022/09/17 05:31:39;;;;;;;15.40;3.80;;;;;;;;;;5042282;28;20426;-81
2022/09/17 05:34:05;;;;;;;11.07;3.13;;;;;;;;;;5042222;28;20438;-81
2022/09/17 05:36:32;;;;;;;19.17;4.30;;;;;;;;;;5040406;28;20931;-81
2022/09/17 05:38:58;;;;;;;16.83;3.70;;;;;;;;;;5044200;28;20441;-80
2022/09/17 05:41:25;;;;;;;12.60;3.60;;;;;;;;;;5043328;28;20427;-81
2022/09/17 05:43:51;;;;;;;16.55;4.57;;;;;;;;;;5042711;28;20429;-80
2022/09/17 05:46:19;;;;;;;13.95;3.20;;;;;;;;;;5041523;28;20421;-80
2022/09/17 05:48:46;;;;;;;15.90;3.40;;;;;;;;;;5038545;28;20423;-81
2022/09/17 05:51:12;;;;;;;14.60;3.00;;;;;;;;;;5044644;28;21055;-81
2022/09/17 05:53:39;;;;;;;13.68;3.20;;;;;;;;;;5042327;28;20843;-81
2022/09/17 05:56:05;;;;;;;16.97;4.20;;;;;;;;;;5043157;28;20444;-81
2022/09/17 05:58:33;;;;;;;16.40;3.58;;;;;;;;;;5042164;28;20427;-81
2022/09/17 06:01:00;;;;;;;10.07;2.58;;;;;;;;;;5042839;28;20426;-81
2022/09/17 06:03:28;;;;;;;13.75;3.83;;;;;;;;;;5041223;28;20444;-80
2022/09/17 06:05:57;;;;;;;17.25;3.58;;;;;;;;;;5042942;28;20497;-80
2022/09/17 06:08:23;;;;;;;14.85;3.60;;;;;;;;;;5043852;28;20436;-81
2022/09/17 06:10:49;;;;;;;13.50;3.60;;;;;;;;;;5042523;28;20435;-81
2022/09/17 06:13:16;;;;;;;13.15;2.90;;;;;;;;;;5041993;28;21052;-81
2022/09/17 06:15:43;;;;;;;15.35;3.00;;;;;;;;;;5042863;28;20433;-80
2022/09/17 06:18:09;;;;;;;14.83;3.10;;;;;;;;;;5042401;28;20461;-81
2022/09/17 06:20:37;;;;;;;13.93;2.95;;;;;;;;;;5044794;28;20452;-84
2022/09/17 06:23:04;;;;;;;18.33;3.25;;;;;;;;;;5041467;28;20437;-82
2022/09/17 06:25:30;;;;;;;17.42;4.00;;;;;;;;;;5044755;28;20434;-82
2022/09/17 06:27:57;;;;;;;15.80;3.87;;;;;;;;;;5043673;28;20505;-81
2022/09/17 06:30:23;;;;;;;16.38;3.45;;;;;;;;;;5043885;28;20793;-82
2022/09/17 06:32:50;;;;;;;14.43;3.75;;;;;;;;;;5041849;28;20436;-82
2022/09/17 06:35:17;;;;;;;12.43;3.42;;;;;;;;;;5042938;28;20497;-82
2022/09/17 06:37:44;;;;;;;15.70;3.05;;;;;;;;;;5044229;28;20407;-82
2022/09/17 06:40:11;;;;;;;13.25;3.40;;;;;;;;;;5040050;28;20805;-82
2022/09/17 06:42:37;;;;;;;14.00;3.50;;;;;;;;;;5041926;28;20407;-82
2022/09/17 06:45:04;;;;;;;11.05;3.20;;;;;;;;;;5043636;28;20799;-82
2022/09/17 06:47:30;;;;;;;14.98;3.40;;;;;;;;;;5040246;28;20514;-82
2022/09/17 06:49:58;;;;;;;15.13;3.67;;;;;;;;;;5040872;28;20784;-81
2022/09/17 06:52:25;;;;;;;10.15;3.05;;;;;;;;;;5037609;28;20917;-82
2022/09/17 06:54:53;;;;;;;15.05;3.63;;;;;;;;;;5043156;28;20427;-82
2022/09/17 06:57:20;;;;;;;13.15;3.33;;;;;;;;;;5038822;28;20440;-82
2022/09/17 06:59:46;;;;;;;15.52;3.20;;;;;;;;;;5042638;28;20433;-81
2022/09/17 07:02:12;;;;;;;11.38;2.90;;;;;;;;;;5042576;28;20430;-84
2022/09/17 07:04:39;;;;;;;19.00;3.70;;;;;;;;;;5041156;28;20796;-83
2022/09/17 07:07:05;;;;;;;15.70;3.35;;;;;;;;;;5041335;28;20433;-81
2022/09/17 07:09:32;;;;;;;10.32;3.17;;;;;;;;;;5060018;28;20410;-81
2022/09/17 07:12:00;;;;;;;15.98;3.10;;;;;;;;;;5062891;28;20779;-81
2022/09/17 07:14:26;;;;;;;12.02;3.10;;;;;;;;;;5042005;28;20419;-82
2022/09/17 07:16:53;;;;;;;16.38;3.50;;;;;;;;;;5043126;28;20435;-82
2022/09/17 07:19:19;;;;;;;16.17;3.30;;;;;;;;;;5040954;28;20501;-81
2022/09/17 07:21:47;;;;;;;13.77;3.60;;;;;;;;;;5039865;28;20430;-83
2022/09/17 07:24:14;;;;;;;19.58;4.50;;;;;;;;;;5043009;28;20422;-82
2022/09/17 07:26:40;;;;;;;15.00;3.00;;;;;;;;;;5041827;28;20435;-81
2022/09/17 07:29:08;;;;;;;18.40;3.37;;;;;;;;;;5041470;28;20796;-81
2022/09/17 07:31:35;;;;;;;14.48;3.30;;;;;;;;;;5041137;28;20990;-81
2022/09/17 07:34:01;;;;;;;13.82;3.40;;;;;;;;;;5045352;28;20425;-82
2022/09/17 07:36:28;;;;;;;15.17;3.00;;;;;;;;;;5038462;28;20439;-82
2022/09/17 07:38:54;;;;;;;11.93;3.10;;;;;;;;;;5039127;28;20758;-81
2022/09/17 07:41:23;;;;;;;18.58;3.30;;;;;;;;;;5041212;28;20937;-82
2022/09/17 07:43:52;;;;;;;10.73;2.90;;;;;;;;;;5040142;28;20501;-81
2022/09/17 07:46:20;;;;;;;11.25;2.92;;;;;;;;;;5041813;28;20425;-82
2022/09/17 07:48:47;;;;;;;14.88;3.45;;;;;;;;;;5042122;28;20419;-82
2022/09/17 07:51:17;;;;;;;13.85;3.60;;;;;;;;;;5041802;28;20410;-82
2022/09/17 07:53:43;;;;;;;13.90;3.73;;;;;;;;;;5038848;28;20440;-82
2022/09/17 07:56:10;;;;;;;13.63;3.00;;;;;;;;;;5039619;28;20430;-83
2022/09/17 07:58:36;;;;;;;13.70;4.03;;;;;;;;;;5040108;28;20421;-82
2022/09/17 08:01:03;;;;;;;16.15;3.50;;;;;;;;;;5038198;28;20425;-83
2022/09/17 08:03:31;;;;;;;15.10;3.20;;;;;;;;;;5039705;28;20411;-82
2022/09/17 08:06:02;;;;;;;8.77;2.70;;;;;;;;;;5040430;28;20425;-82
2022/09/17 08:08:29;;;;;;;12.20;3.25;;;;;;;;;;5038028;28;20416;-82
2022/09/17 08:10:59;;;;;;;9.97;2.50;;;;;;;;;;5039171;28;24022;-82
2022/09/17 08:13:25;;;;;;;9.43;2.60;;;;;;;;;;5040402;28;20428;-81
2022/09/17 08:15:51;;;;;;;10.53;2.50;;;;;;;;;;5043981;28;20444;-82
2022/09/17 08:18:18;;;;;;;11.57;2.22;;;;;;;;;;5040572;28;20418;-82
2022/09/17 08:20:46;;;;;;;7.18;1.90;;;;;;;;;;5048872;28;20438;-82
2022/09/17 08:23:13;;;;;;;6.60;1.90;;;;;;;;;;5047325;28;20429;-82
2022/09/17 08:25:39;;;;;;;8.83;1.80;;;;;;;;;;5045933;28;21000;-83
2022/09/17 08:28:06;;;;;;;7.53;1.80;;;;;;;;;;5046517;28;20416;-82
2022/09/17 08:30:32;;;;;;;7.20;1.77;;;;;;;;;;5048228;28;20425;-83
2022/09/17 08:32:58;;;;;;;8.45;1.75;;;;;;;;;;5046014;28;20437;-82
2022/09/17 08:35:26;;;;;;;7.20;2.28;;;;;;;;;;5045028;28;20438;-82
2022/09/17 08:37:55;;;;;;;5.22;2.05;;;;;;;;;;5044593;28;20857;-81
2022/09/17 08:40:22;;;;;;;8.02;2.05;;;;;;;;;;5049565;28;20409;-82
2022/09/17 08:42:53;;;;;;;9.70;2.40;;;;;;;;;;5050152;28;20427;-82
2022/09/17 08:45:19;;;;;;;6.75;1.73;;;;;;;;;;5047299;28;20425;-81
2022/09/17 08:47:47;;;;;;;8.15;2.20;;;;;;;;;;5046396;28;20768;-82
2022/09/17 08:50:14;;;;;;;7.35;2.10;;;;;;;;;;5045304;28;20429;-82
2022/09/17 08:53:05;;;;;;;7.35;2.30;;;;;;;;;;5045991;28;20903;-82
2022/09/17 08:55:35;;;;;;;7.50;2.58;;;;;;;;;;5047634;28;20437;-81
2022/09/17 08:58:08;;;;;;;11.32;2.85;;;;;;;;;;5045658;28;20436;-82
2022/09/17 09:00:38;;;;;;;10.30;3.10;;;;;;;;;;5046792;28;20428;-83
2022/09/17 09:03:15;;;;;;;12.75;3.10;;;;;;;;;;5045931;28;20424;-81
2022/09/17 09:05:44;;;;;;;7.40;2.70;;;;;;;;;;5045758;28;20832;-81
2022/09/17 09:08:15;;;;;;;7.95;2.50;;;;;;;;;;5045066;28;20448;-82
2022/09/17 09:10:45;;;;;;;11.98;2.70;;;;;;;;;;5044112;28;20434;-82
2022/09/17 09:13:16;;;;;;;11.80;2.83;;;;;;;;;;5046909;28;20485;-82
2022/09/17 09:15:44;;;;;;;10.10;3.22;;;;;;;;;;5047360;28;20463;-83
2022/09/17 09:18:15;;;;;;;12.10;2.67;;;;;;;;;;5046443;28;20425;-82
2022/09/17 09:20:45;;;;;;;12.60;3.15;;;;;;;;;;5044571;28;20534;-81
2022/09/17 09:23:16;;;;;;;12.30;2.95;;;;;;;;;;5044760;28;20473;-82
2022/09/17 09:25:50;;;;;;;11.48;3.10;;;;;;;;;;5045089;28;20429;-82
2022/09/17 09:28:32;;;;;;;11.32;2.80;;;;;;;;;;5044004;28;21141;-82
2022/09/17 09:31:06;;;;;;;10.43;2.83;;;;;;;;;;5043660;28;20429;-82
2022/09/17 09:33:36;;;;;;;6.47;2.30;;;;;;;;;;5036463;28;20435;-82
2022/09/17 09:36:05;;;;;;;10.55;2.33;;;;;;;;;;5044164;28;20445;-82
2022/09/17 09:38:35;;;;;;;13.88;2.80;;;;;;;;;;5042576;28;20435;-82
2022/09/17 09:41:06;;;;;;;10.45;2.35;;;;;;;;;;5042715;28;20439;-81
2022/09/17 09:43:36;;;;;;;8.93;2.90;;;;;;;;;;5040670;28;20433;-82
2022/09/17 09:46:09;;;;;;;9.18;2.15;;;;;;;;;;5043752;28;20440;-81
2022/09/17 09:48:38;;;;;;;9.43;2.40;;;;;;;;;;5040710;28;20419;-81
2022/09/17 09:51:13;;;;;;;8.32;2.10;;;;;;;;;;5043498;28;20433;-82
2022/09/17 09:53:46;;;;;;;6.25;2.20;;;;;;;;;;5042868;28;20441;-81
2022/09/17 09:56:24;;;;;;;5.57;1.50;;;;;;;;;;5042211;28;20438;-82
2022/09/17 09:58:50;;;;;;;7.05;1.90;;;;;;;;;;5041695;28;20808;-81
2022/09/17 10:01:19;;;;;;;8.80;2.00;;;;;;;;;;5041146;28;20527;-82
2022/09/17 10:03:46;;;;;;;4.78;1.67;;;;;;;;;;5039893;28;20433;-82
2022/09/17 10:06:13;;;;;;;5.93;1.80;;;;;;;;;;5041460;28;20439;-82
2022/09/17 10:08:42;;;;;;;7.63;1.90;;;;;;;;;;5040909;28;20796;-82
2022/09/17 10:11:17;;;;;;;3.95;1.30;;;;;;;;;;5042000;28;20836;-82
2022/09/17 10:13:44;;;;;;;9.90;2.10;;;;;;;;;;5040540;28;20437;-82
2022/09/17 10:16:16;;;;;;;6.43;1.50;;;;;;;;;;5044558;28;20434;-82
2022/09/17 10:18:43;;;;;;;6.60;1.60;;;;;;;;;;5040654;28;20438;-81
2022/09/17 10:21:18;;;;;;;5.75;1.90;;;;;;;;;;5040729;28;20443;-81
2022/09/17 10:23:46;;;;;;;6.10;1.70;;;;;;;;;;5041411;28;20429;-81
2022/09/17 10:26:20;;;;;;;3.08;1.50;;;;;;;;;;5040996;28;20441;-82
2022/09/17 10:28:48;;;;;;;4.05;1.20;;;;;;;;;;5040038;28;20434;-82
2022/09/17 10:31:15;;;;;;;4.63;1.60;;;;;;;;;;5040738;28;20430;-82
2022/09/17 10:33:51;;;;;;;5.90;1.45;;;;;;;;;;5040260;28;20428;-82
2022/09/17 10:36:34;;;;;;;7.97;1.80;;;;;;;;;;5042395;28;20431;-83
2022/09/17 10:39:17;;;;;;;6.55;2.08;;;;;;;;;;5039697;28;20438;-82
2022/09/17 10:41:53;;;;;;;11.43;2.25;;;;;;;;;;5038384;28;20427;-82
2022/09/17 10:44:22;;;;;;;9.00;2.47;;;;;;;;;;5040872;28;20491;-82
2022/09/17 10:46:48;;;;;;;10.00;2.65;;;;;;;;;;5040883;28;20441;-82
2022/09/17 10:49:22;;;;;;;11.40;2.90;;;;;;;;;;5041292;28;20438;-82
2022/09/17 10:51:49;;;;;;;8.88;2.60;;;;;;;;;;5041278;28;20429;-82
2022/09/17 10:54:24;;;;;;;10.90;2.60;;;;;;;;;;5056127;28;20935;-82
2022/09/17 10:56:53;;;;;;;12.55;3.00;;;;;;;;;;5057363;28;20423;-81
2022/09/17 10:59:38;;;;;;;6.60;2.50;;;;;;;;;;5043295;28;20469;-81
2022/09/17 11:02:08;;;;;;;8.80;2.30;;;;;;;;;;5042209;28;20526;-82
2022/09/17 11:04:42;;;;;;;9.98;2.60;;;;;;;;;;5039688;28;20433;-82
2022/09/17 11:07:16;;;;;;;10.95;3.30;;;;;;;;;;5040167;28;20509;-81
2022/09/17 11:09:50;;;;;;;6.07;2.42;;;;;;;;;;5042242;28;20417;-82
2022/09/17 11:12:23;;;;;;;9.10;2.72;;;;;;;;;;5038082;28;21017;-82
2022/09/17 11:14:53;;;;;;;12.90;2.67;;;;;;;;;;5041168;28;20445;-82
2022/09/17 11:17:27;;;;;;;7.28;2.22;;;;;;;;;;5040720;28;20433;-81
2022/09/17 11:19:58;;;;;;;8.35;2.67;;;;;;;;;;5040983;28;20807;-82
2022/09/17 11:22:29;;;;;;;9.18;2.30;;;;;;;;;;5041060;28;20433;-81
2022/09/17 11:25:11;;;;;;;12.10;2.95;;;;;;;;;;5039530;28;20519;-81
2022/09/17 11:27:46;;;;;;;10.25;2.30;;;;;;;;;;5037966;28;20444;-82
2022/09/17 11:30:17;;;;;;;9.80;3.00;;;;;;;;;;5041295;28;20949;-81
2022/09/17 11:32:58;;;;;;;7.00;1.95;;;;;;;;;;5039071;28;20450;-82
2022/09/17 11:35:26;;;;;;;7.45;2.30;;;;;;;;;;5023238;28;20432;-82
2022/09/17 11:37:56;;;;;;;11.20;2.70;;;;;;;;;;5046139;28;20411;-81
2022/09/17 11:40:25;;;;;;;10.05;2.20;;;;;;;;;;5061085;28;20446;-81
2022/09/17 11:42:56;;;;;;;11.77;1.98;;;;;;;;;;5053173;28;20431;-82
2022/09/17 11:45:23;;;;;;;12.18;2.50;;;;;;;;;;5039652;28;20436;-81
2022/09/17 11:47:51;;;;;;;6.28;2.30;;;;;;;;;;5038897;28;20434;-82
2022/09/17 11:50:20;;;;;;;7.68;2.08;;;;;;;;;;5041006;28;20426;-81
2022/09/17 11:52:51;;;;;;;7.57;2.78;;;;;;;;;;5040504;28;20415;-81
2022/09/17 11:55:20;;;;;;;9.82;1.85;;;;;;;;;;5039940;28;20429;-80
2022/09/17 11:57:48;;;;;;;4.03;1.63;;;;;;;;;;5038219;28;20426;-81
2022/09/17 12:00:18;;;;;;;6.80;1.90;;;;;;;;;;5039068;28;20439;-81
2022/09/17 12:02:48;;;;;;;5.53;1.90;;;;;;;;;;5037748;28;20423;-81
2022/09/17 12:05:17;;;;;;;9.18;2.13;;;;;;;;;;5040158;28;20803;-80
2022/09/17 12:07:48;;;;;;;7.93;2.70;;;;;;;;;;5039024;28;20419;-81
2022/09/17 12:10:28;;;;;;;7.95;2.35;;;;;;;;;;5040508;28;20429;-81
2022/09/17 12:12:57;;;;;;;10.50;2.83;;;;;;;;;;5039296;28;20423;-82
2022/09/17 12:15:27;;;;;;;11.20;2.75;;;;;;;;;;5041547;28;21174;-82
2022/09/17 12:17:57;;;;;;;9.10;2.55;;;;;;;;;;5037986;28;20413;-82
2022/09/17 12:20:27;;;;;;;11.20;2.72;;;;;;;;;;5039094;28;20446;-83
2022/09/17 12:22:54;;;;;;;14.00;2.90;;;;;;;;;;5041800;28;20931;-81
2022/09/17 12:25:21;;;;;;;17.30;2.95;;;;;;;;;;5039558;28;20433;-82
2022/09/17 12:27:51;;;;;;;17.33;3.72;;;;;;;;;;5040343;28;20481;-80
2022/09/17 12:30:20;;;;;;;15.25;3.97;;;;;;;;;;5040042;28;20445;-81
2022/09/17 12:33:04;;;;;;;15.70;3.50;;;;;;;;;;5036850;28;20438;-81
2022/09/17 12:35:44;;;;;;;18.05;4.20;;;;;;;;;;5025740;28;20425;-81
2022/09/17 12:38:17;;;;;;;10.70;3.30;;;;;;;;;;5037931;28;20916;-80
2022/09/17 12:40:48;;;;;;;10.98;3.03;;;;;;;;;;5040899;28;20445;-82
2022/09/17 12:43:28;;;;;;;14.25;3.30;;;;;;;;;;5040210;28;20426;-81
2022/09/17 12:46:05;;;;;;;14.43;3.10;;;;;;;;;;5038444;28;20430;-82
2022/09/17 12:48:47;;;;;;;14.70;3.40;;;;;;;;;;5038324;28;20413;-81
2022/09/17 12:51:21;;;;;;;11.60;3.40;;;;;;;;;;5039156;28;20442;-81
2022/09/17 12:53:51;;;;;;;7.90;2.67;;;;;;;;;;5039660;28;20432;-83
2022/09/17 12:56:24;;;;;;;13.98;3.00;;;;;;;;;;5040956;28;20417;-82
2022/09/17 12:59:01;;;;;;;12.43;3.17;;;;;;;;;;5038829;28;20427;-82
2022/09/17 13:01:30;;;;;;;11.50;2.53;;;;;;;;;;5038380;28;20420;-82
2022/09/17 13:04:00;;;;;;;8.13;2.20;;;;;;;;;;5039941;28;20426;-82
2022/09/17 13:06:40;;;;;;;7.30;2.08;;;;;;;;;;5043698;28;20430;-82
2022/09/17 13:09:31;;;;;;;11.07;2.38;;;;;;;;;;5040532;28;20438;-82
2022/09/17 13:12:08;;;;;;;7.57;2.25;;;;;;;;;;5028661;28;20501;-82
2022/09/17 13:14:45;;;;;;;8.00;2.60;;;;;;;;;;5043045;28;20768;-81
2022/09/17 13:17:18;;;;;;;15.63;3.70;;;;;;;;;;5043686;28;20510;-81
2022/09/17 13:19:51;;;;;;;8.65;2.20;;;;;;;;;;5062407;28;20425;-81
2022/09/17 13:22:20;;;;;;;11.43;2.50;;;;;;;;;;5062431;28;20485;-83
2022/09/17 13:24:48;;;;;;;7.63;2.10;;;;;;;;;;5063241;28;20944;-81
2022/09/17 13:27:20;;;;;;;12.45;2.85;;;;;;;;;;5062064;28;20437;-82
2022/09/17 13:29:57;;;;;;;13.45;3.10;;;;;;;;;;5040708;28;20913;-81
2022/09/17 13:32:42;;;;;;;8.98;2.65;;;;;;;;;;5042489;28;20430;-80
2022/09/17 13:35:26;;;;;;;13.70;2.50;;;;;;;;;;5042968;28;20441;-81
2022/09/17 13:37:56;;;;;;;9.70;1.92;;;;;;;;;;5029830;28;20421;-82
2022/09/17 13:40:24;;;;;;;6.05;1.63;;;;;;;;;;5039356;28;20437;-81
2022/09/17 13:42:54;;;;;;;7.68;2.15;;;;;;;;;;5043055;28;20411;-82
2022/09/17 13:45:22;;;;;;;10.75;2.70;;;;;;;;;;5042889;28;20932;-82
2022/09/17 13:47:50;;;;;;;11.57;2.70;;;;;;;;;;5043200;28;20425;-81
2022/09/17 13:50:25;;;;;;;8.75;2.90;;;;;;;;;;5042341;28;20429;-81
2022/09/17 13:52:51;;;;;;;10.32;2.67;;;;;;;;;;5041388;28;20421;-80
2022/09/17 13:55:33;;;;;;;11.70;2.95;;;;;;;;;;5040109;28;20438;-82
2022/09/17 13:58:00;;;;;;;16.77;3.50;;;;;;;;;;5042261;28;20417;-82
2022/09/17 14:00:46;;;;;;;14.02;3.78;;;;;;;;;;5040792;28;20794;-81
2022/09/17 14:03:33;;;;;;;8.73;2.60;;;;;;;;;;5042336;28;20452;-82
2022/09/17 14:06:17;;;;;;;13.85;3.30;;;;;;;;;;5044039;28;20859;-80
2022/09/17 14:08:48;;;;;;;7.97;2.70;;;;;;;;;;5039451;28;20410;-82
2022/09/17 14:11:31;;;;;;;13.57;3.20;;;;;;;;;;5044185;28;20438;-81
2022/09/17 14:14:15;;;;;;;13.38;2.53;;;;;;;;;;5043354;28;20417;-80
2022/09/17 14:16:46;;;;;;;11.18;2.90;;;;;;;;;;5039643;28;20426;-81
2022/09/17 14:19:31;;;;;;;15.02;3.17;;;;;;;;;;5039936;28;20421;-82
2022/09/17 14:22:02;;;;;;;13.53;3.63;;;;;;;;;;5042229;28;20439;-82
2022/09/17 14:24:36;;;;;;;10.77;3.20;;;;;;;;;;5043105;28;20915;-81
2022/09/17 14:27:11;;;;;;;13.40;3.20;;;;;;;;;;5043678;28;20412;-82
2022/09/17 14:30:04;;;;;;;14.13;3.10;;;;;;;;;;5041030;28;20424;-82
2022/09/17 14:32:36;;;;;;;13.48;3.35;;;;;;;;;;5040342;28;20832;-81
2022/09/17 14:35:03;;;;;;;14.20;3.47;;;;;;;;;;5041497;28;20898;-82
2022/09/17 14:37:30;;;;;;;14.40;3.85;;;;;;;;;;5042809;28;20430;-81
2022/09/17 14:39:57;;;;;;;14.07;3.90;;;;;;;;;;5042176;28;20449;-82
2022/09/17 14:42:25;;;;;;;14.70;2.90;;;;;;;;;;5039724;28;20977;-83
2022/09/17 14:44:56;;;;;;;12.95;3.72;;;;;;;;;;5039656;28;20977;-81
2022/09/17 14:47:23;;;;;;;8.02;2.72;;;;;;;;;;5040690;28;20548;-82
2022/09/17 14:49:51;;;;;;;12.98;2.70;;;;;;;;;;5040934;28;20508;-81